Time;durP1;ratioP1;P1;durP2;ratioP2;P2;SDS_P1;SDS_P2;PMS_P1;PMS_P2;Temp;Humidity;BMP_temperature;BMP_pressure;BME280_temperature;BME280_humidity;BME280_pressure;Samples;Min_cycle;Max_cycle;Signal;HPM_P1;HPM_P2
2021/11/17 02:27:15;;;;;;;42.77;17.93;;;5.90;99.90;;;;;;5035645;28;20235;-55
2021/11/17 02:30:04;;;;;;;45.03;17.60;;;5.90;99.90;;;;;;5035868;28;20201;-52
2021/11/17 02:32:56;;;;;;;45.03;17.10;;;6.00;99.90;;;;;;5039485;28;20253;-54
2021/11/17 02:35:58;;;;;;;44.87;15.57;;;6.00;99.90;;;;;;5035221;28;20428;-52
2021/11/17 02:38:40;;;;;;;42.10;15.70;;;6.00;99.90;;;;;;5035404;28;20286;-53
2021/11/17 02:41:22;;;;;;;37.80;16.07;;;5.90;99.90;;;;;;5037960;28;20375;-51
2021/11/17 02:44:06;;;;;;;45.77;17.17;;;5.90;99.90;;;;;;5035949;28;20199;-52
2021/11/17 02:46:51;;;;;;;47.23;17.07;;;6.00;99.90;;;;;;5045083;28;20716;-54
2021/11/17 02:49:34;;;;;;;41.33;16.77;;;6.00;99.90;;;;;;5037690;28;22353;-52
2021/11/17 02:52:07;;;;;;;46.80;16.77;;;6.10;99.90;;;;;;5036026;28;20253;-52
2021/11/17 02:54:59;;;;;;;46.47;17.60;;;6.10;99.90;;;;;;5035498;28;20300;-55
2021/11/17 02:57:51;;;;;;;40.53;17.03;;;6.10;99.90;;;;;;5044962;28;20696;-52
2021/11/17 03:00:36;;;;;;;43.53;17.80;;;6.10;99.90;;;;;;5036876;28;20230;-53
2021/11/17 03:03:12;;;;;;;36.97;15.83;;;6.10;99.90;;;;;;5040115;28;20207;-52
2021/11/17 03:05:44;;;;;;;43.53;16.17;;;6.20;99.90;;;;;;5034835;28;20629;-51
2021/11/17 03:08:43;;;;;;;41.77;17.37;;;6.10;99.90;;;;;;5037007;28;20203;-54
2021/11/17 03:11:10;;;;;;;40.57;16.37;;;6.20;99.90;;;;;;5019610;28;20270;-52
2021/11/17 03:13:52;;;;;;;40.17;17.67;;;6.20;99.90;;;;;;5037671;28;20874;-53
2021/11/17 03:16:35;;;;;;;41.50;15.83;;;6.20;99.90;;;;;;5036473;28;20711;-54
2021/11/17 03:19:08;;;;;;;42.00;17.27;;;6.10;99.90;;;;;;5051460;28;20315;-52
2021/11/17 03:21:46;;;;;;;44.70;17.47;;;6.20;99.90;;;;;;5035546;28;20289;-53
2021/11/17 03:24:26;;;;;;;41.07;17.33;;;6.20;99.90;;;;;;5038517;28;20274;-54
2021/11/17 03:27:38;;;;;;;44.40;16.53;;;6.20;99.90;;;;;;5036166;28;20281;-52
2021/11/17 03:30:20;;;;;;;41.50;16.13;;;6.20;99.90;;;;;;5034045;28;20322;-52
2021/11/17 03:33:05;;;;;;;43.10;16.53;;;6.10;99.90;;;;;;5035413;28;20250;-53
2021/11/17 03:36:00;;;;;;;40.80;17.10;;;6.20;99.90;;;;;;5033250;28;20216;-52
2021/11/17 03:38:33;;;;;;;41.07;16.10;;;6.20;99.90;;;;;;5032547;28;20295;-52
2021/11/17 03:41:12;;;;;;;40.90;16.80;;;6.20;99.90;;;;;;5036329;28;20231;-53
2021/11/17 03:43:59;;;;;;;39.93;15.17;;;6.20;99.90;;;;;;5033173;28;20207;-53
2021/11/17 03:47:02;;;;;;;44.43;16.07;;;6.20;99.90;;;;;;5034904;28;21163;-51
2021/11/17 03:49:29;;;;;;;39.47;15.43;;;6.20;99.90;;;;;;5023929;28;20250;-54
2021/11/17 03:52:02;;;;;;;32.33;14.50;;;6.30;99.90;;;;;;5032783;28;20231;-52
2021/11/17 03:54:52;;;;;;;43.13;15.47;;;6.20;99.90;;;;;;5035192;28;20223;-52
2021/11/17 03:57:41;;;;;;;42.50;16.03;;;6.20;99.90;;;;;;5035806;28;20260;-52
2021/11/17 04:00:44;;;;;;;39.33;15.30;;;6.30;99.90;;;;;;5036910;28;20272;-53
2021/11/17 04:03:20;;;;;;;42.93;15.87;;;6.30;99.90;;;;;;5035324;28;20234;-53
2021/11/17 04:06:16;;;;;;;42.33;17.20;;;6.30;99.90;;;;;;5035399;28;20240;-53
2021/11/17 04:09:17;;;;;;;39.20;15.60;;;6.20;99.90;;;;;;5047194;28;20246;-51
2021/11/17 04:11:43;;;;;;;34.40;15.03;;;6.30;99.90;;;;;;5035732;28;20284;-51
2021/11/17 04:14:25;;;;;;;39.70;16.10;;;6.30;99.90;;;;;;5034408;28;20201;-53
2021/11/17 04:17:07;;;;;;;44.80;16.83;;;6.30;99.90;;;;;;5034884;28;21687;-53
2021/11/17 04:20:16;;;;;;;40.53;15.43;;;6.30;99.90;;;;;;5038127;28;20258;-53
2021/11/17 04:23:18;;;;;;;39.03;16.07;;;6.30;99.90;;;;;;5037193;28;20257;-52
2021/11/17 04:26:17;;;;;;;37.80;14.90;;;6.40;99.90;;;;;;5034196;28;20225;-54
2021/11/17 04:29:26;;;;;;;42.17;16.07;;;6.40;99.90;;;;;;5031699;28;20204;-54
2021/11/17 04:32:10;;;;;;;39.63;14.93;;;6.30;99.90;;;;;;5035692;28;20319;-52
2021/11/17 04:34:52;;;;;;;38.83;16.00;;;6.30;99.90;;;;;;5034118;28;20304;-51
2021/11/17 04:37:44;;;;;;;39.63;15.40;;;6.30;99.90;;;;;;5030928;28;20211;-53
2021/11/17 04:40:11;;;;;;;40.87;15.13;;;6.40;99.90;;;;;;5037453;28;20689;-53
2021/11/17 04:42:50;;;;;;;39.37;16.87;;;6.30;99.90;;;;;;5035756;28;20670;-52
2021/11/17 04:45:29;;;;;;;42.93;16.17;;;6.40;99.90;;;;;;5034559;28;20234;-52
2021/11/17 04:48:26;;;;;;;39.43;15.43;;;6.40;99.90;;;;;;5032758;28;20581;-52
2021/11/17 04:51:02;;;;;;;38.20;15.80;;;6.50;99.90;;;;;;5034636;28;20238;-53
2021/11/17 04:53:52;;;;;;;37.60;15.03;;;6.40;99.90;;;;;;5035397;28;20225;-52
2021/11/17 04:56:41;;;;;;;44.20;15.83;;;6.40;99.90;;;;;;5035645;28;20218;-53
2021/11/17 04:59:30;;;;;;;41.87;15.73;;;6.30;99.90;;;;;;5036496;28;20283;-51
2021/11/17 05:02:18;;;;;;;39.60;15.40;;;6.30;99.90;;;;;;5039232;28;20328;-54
2021/11/17 05:05:12;;;;;;;40.30;16.50;;;6.30;99.90;;;;;;5033469;28;20493;-55
2021/11/17 05:08:04;;;;;;;38.93;15.93;;;6.30;99.90;;;;;;5034881;28;20344;-54
2021/11/17 05:10:32;;;;;;;38.07;15.67;;;6.30;99.90;;;;;;5037094;28;20336;-53
2021/11/17 05:13:47;;;;;;;36.53;15.60;;;6.30;99.90;;;;;;5039866;28;20208;-52
2021/11/17 05:16:37;;;;;;;40.33;16.40;;;6.30;99.90;;;;;;5036762;28;20312;-52
2021/11/17 05:19:13;;;;;;;36.80;14.83;;;6.40;99.90;;;;;;5030912;28;20299;-51
2021/11/17 05:21:55;;;;;;;36.70;14.93;;;6.40;99.90;;;;;;5037928;28;20257;-53
2021/11/17 05:24:36;;;;;;;42.10;15.90;;;6.30;99.90;;;;;;5037659;28;20307;-52
2021/11/17 05:27:22;;;;;;;37.27;16.30;;;6.30;99.90;;;;;;5039383;28;20281;-52
2021/11/17 05:30:19;;;;;;;44.20;16.63;;;6.30;99.90;;;;;;5037033;28;20198;-54
2021/11/17 05:33:08;;;;;;;40.20;16.07;;;6.30;99.90;;;;;;5036646;28;20406;-52
2021/11/17 05:36:17;;;;;;;42.70;16.03;;;6.30;99.90;;;;;;5034622;28;20310;-52
2021/11/17 05:39:12;;;;;;;40.97;16.10;;;6.40;99.90;;;;;;5036844;28;20692;-52
2021/11/17 05:42:03;;;;;;;43.57;16.47;;;6.40;99.90;;;;;;5036463;28;20200;-53
2021/11/17 05:44:51;;;;;;;38.73;15.60;;;6.40;99.90;;;;;;5037742;28;20211;-52
2021/11/17 05:47:41;;;;;;;39.40;15.40;;;6.40;99.90;;;;;;5034258;28;20295;-54
2021/11/17 05:51:02;;;;;;;43.93;16.27;;;6.40;99.90;;;;;;5038872;28;20358;-53
2021/11/17 05:53:42;;;;;;;47.13;16.27;;;6.40;99.90;;;;;;5035722;28;20366;-53
2021/11/17 05:56:50;;;;;;;40.67;14.97;;;6.50;99.90;;;;;;5032649;28;20206;-53
2021/11/17 05:59:23;;;;;;;41.33;15.47;;;6.40;99.90;;;;;;5033507;28;20302;-53
2021/11/17 06:02:02;;;;;;;39.77;15.57;;;6.40;99.90;;;;;;5035666;28;20342;-54
2021/11/17 06:04:29;;;;;;;40.00;16.70;;;6.40;99.90;;;;;;5032151;28;20329;-52
2021/11/17 06:06:55;;;;;;;45.40;18.00;;;6.50;99.90;;;;;;5030913;28;20220;-53
2021/11/17 06:09:22;;;;;;;36.23;15.60;;;6.50;99.90;;;;;;5032821;28;20237;-53
2021/11/17 06:11:56;;;;;;;41.60;16.10;;;6.50;99.90;;;;;;5034209;28;20301;-52
2021/11/17 06:14:34;;;;;;;35.50;15.20;;;6.50;99.90;;;;;;5032220;28;21050;-52
2021/11/17 06:17:08;;;;;;;38.23;16.37;;;6.50;99.90;;;;;;5031449;28;20281;-52
2021/11/17 06:19:40;;;;;;;35.50;15.17;;;6.60;99.90;;;;;;5031590;28;20252;-52
2021/11/17 06:22:09;;;;;;;37.37;15.03;;;6.70;99.90;;;;;;5031899;28;20691;-52
2021/11/17 06:24:37;;;;;;;36.20;15.40;;;6.60;99.90;;;;;;5033792;28;20286;-52
2021/11/17 06:27:08;;;;;;;35.43;15.50;;;6.70;99.90;;;;;;5034886;28;20592;-53
2021/11/17 06:29:37;;;;;;;34.93;15.30;;;6.70;99.90;;;;;;5049263;28;20333;-53
2021/11/17 06:32:05;;;;;;;38.40;15.80;;;6.70;99.90;;;;;;5037424;28;20208;-52
2021/11/17 06:34:54;;;;;;;38.80;15.20;;;6.70;99.90;;;;;;5038094;28;20284;-53
2021/11/17 06:37:23;;;;;;;35.93;14.77;;;6.70;99.90;;;;;;5035196;28;20201;-52
2021/11/17 06:39:52;;;;;;;40.50;16.57;;;6.70;99.90;;;;;;5039921;28;20295;-52
2021/11/17 06:42:25;;;;;;;41.93;15.83;;;6.70;99.90;;;;;;5036995;28;20234;-52
2021/11/17 06:44:54;;;;;;;34.53;14.70;;;6.80;99.90;;;;;;5036141;28;20816;-52
2021/11/17 06:47:22;;;;;;;41.13;14.50;;;6.80;99.90;;;;;;5037310;28;20220;-52
2021/11/17 06:49:52;;;;;;;38.40;16.03;;;6.80;99.90;;;;;;5044742;28;20261;-52
2021/11/17 06:52:23;;;;;;;37.77;15.03;;;6.80;99.90;;;;;;5076444;28;20203;-51
2021/11/17 06:54:51;;;;;;;39.67;16.43;;;6.80;99.90;;;;;;5061231;28;20325;-53
2021/11/17 06:57:18;;;;;;;41.63;17.10;;;6.80;99.90;;;;;;5070057;28;20222;-53
2021/11/17 06:59:46;;;;;;;43.90;17.10;;;6.80;99.90;;;;;;5072161;28;20623;-52
2021/11/17 07:02:14;;;;;;;44.27;16.90;;;6.90;99.90;;;;;;5072836;28;20209;-52
2021/11/17 07:04:42;;;;;;;36.70;15.33;;;6.90;99.90;;;;;;5080631;28;20247;-50
2021/11/17 07:07:13;;;;;;;42.53;16.40;;;6.90;99.90;;;;;;5077373;28;20778;-51
2021/11/17 07:09:41;;;;;;;42.80;15.87;;;6.90;99.90;;;;;;5074584;28;20215;-53
2021/11/17 07:12:09;;;;;;;41.63;16.33;;;6.90;99.90;;;;;;5073885;28;20210;-53
2021/11/17 07:14:36;;;;;;;39.93;15.83;;;7.00;99.90;;;;;;5071368;28;20601;-52
2021/11/17 07:17:03;;;;;;;42.20;17.37;;;6.90;99.90;;;;;;5074363;28;20308;-51
2021/11/17 07:19:31;;;;;;;37.33;16.57;;;7.00;99.90;;;;;;5076886;28;20254;-54
2021/11/17 07:22:00;;;;;;;42.27;17.37;;;7.00;99.90;;;;;;5072657;28;20262;-52
2021/11/17 07:24:29;;;;;;;40.47;17.10;;;7.10;99.90;;;;;;5071858;28;20277;-54
2021/11/17 07:26:56;;;;;;;41.27;17.47;;;7.10;99.90;;;;;;5070074;28;20228;-52
2021/11/17 07:29:23;;;;;;;41.80;17.73;;;7.10;99.90;;;;;;5075058;28;20210;-51
2021/11/17 07:31:50;;;;;;;39.17;17.00;;;7.20;99.90;;;;;;5076912;28;20240;-51
2021/11/17 07:34:18;;;;;;;41.03;17.20;;;7.20;99.90;;;;;;5078031;28;20295;-55
2021/11/17 07:36:46;;;;;;;42.10;17.23;;;7.20;99.90;;;;;;5074290;28;20598;-51
2021/11/17 07:39:14;;;;;;;43.80;18.57;;;7.20;99.90;;;;;;5073970;28;20209;-52
2021/11/17 07:41:47;;;;;;;44.60;17.60;;;7.30;99.90;;;;;;5077892;28;20263;-51
2021/11/17 07:44:16;;;;;;;41.97;17.37;;;7.30;99.90;;;;;;5075107;28;20201;-53
2021/11/17 07:46:49;;;;;;;51.30;18.70;;;7.30;99.90;;;;;;5071910;28;20231;-52
2021/11/17 07:49:17;;;;;;;46.47;18.27;;;7.30;99.90;;;;;;5074996;28;20233;-52
2021/11/17 07:51:45;;;;;;;49.33;20.77;;;7.30;99.90;;;;;;5073067;28;20238;-53
2021/11/17 07:54:13;;;;;;;52.17;20.63;;;7.40;99.90;;;;;;5075330;28;20202;-52
2021/11/17 07:56:41;;;;;;;54.50;19.03;;;7.40;99.90;;;;;;5077600;28;20359;-54
2021/11/17 07:59:13;;;;;;;49.07;20.33;;;7.50;99.90;;;;;;5074779;28;20854;-52
2021/11/17 08:01:42;;;;;;;51.43;20.10;;;7.50;99.90;;;;;;5074097;28;20226;-52
2021/11/17 08:04:14;;;;;;;43.27;18.33;;;7.50;99.90;;;;;;5075977;28;20202;-52
2021/11/17 08:06:41;;;;;;;49.50;20.07;;;7.50;99.90;;;;;;5073844;28;20263;-51
2021/11/17 08:09:10;;;;;;;49.73;20.13;;;7.50;99.90;;;;;;5075130;28;20258;-52
2021/11/17 08:11:38;;;;;;;47.30;20.07;;;7.50;99.90;;;;;;5076217;28;20313;-52
2021/11/17 08:14:05;;;;;;;49.70;20.50;;;7.50;99.90;;;;;;5075827;28;20203;-52
2021/11/17 08:16:32;;;;;;;58.17;23.13;;;7.50;99.90;;;;;;5075666;28;20647;-52
2021/11/17 08:18:59;;;;;;;51.50;20.50;;;7.50;99.90;;;;;;5074255;28;20808;-53
2021/11/17 08:21:26;;;;;;;57.10;21.03;;;7.50;99.90;;;;;;5049988;28;20699;-54
2021/11/17 08:23:53;;;;;;;68.40;21.90;;;7.50;99.90;;;;;;5068386;28;20240;-52
2021/11/17 08:26:22;;;;;;;56.87;21.80;;;7.60;99.90;;;;;;5073280;28;20225;-52
2021/11/17 08:28:50;;;;;;;58.80;21.57;;;7.60;99.90;;;;;;5075005;28;20267;-52
2021/11/17 08:31:17;;;;;;;58.57;22.93;;;7.70;99.90;;;;;;5075648;28;20299;-50
2021/11/17 08:33:45;;;;;;;68.53;23.03;;;7.70;99.90;;;;;;5075636;28;20214;-51
2021/11/17 08:36:13;;;;;;;61.67;23.23;;;7.70;99.90;;;;;;5072521;28;20253;-53
2021/11/17 08:38:40;;;;;;;64.03;23.07;;;7.60;99.90;;;;;;5055751;28;20278;-52
2021/11/17 08:41:09;;;;;;;65.67;22.60;;;7.70;99.90;;;;;;5074676;28;20287;-52
2021/11/17 08:43:38;;;;;;;64.43;23.27;;;7.80;99.90;;;;;;5076660;28;20650;-51
2021/11/17 08:46:05;;;;;;;59.27;23.33;;;7.80;99.90;;;;;;5071934;28;20250;-52
2021/11/17 08:48:35;;;;;;;60.43;23.60;;;7.80;99.90;;;;;;5071660;28;20675;-52
2021/11/17 08:51:04;;;;;;;63.97;22.30;;;7.80;99.90;;;;;;5074653;28;20266;-51
2021/11/17 08:53:35;;;;;;;69.60;23.50;;;7.80;99.90;;;;;;5073230;28;20683;-54
2021/11/17 08:56:03;;;;;;;66.60;23.80;;;7.90;99.90;;;;;;5072277;28;20647;-54
2021/11/17 08:58:31;;;;;;;71.00;24.33;;;7.90;99.90;;;;;;5073338;28;20289;-52
2021/11/17 09:00:58;;;;;;;78.07;25.93;;;7.80;99.90;;;;;;5076343;28;21918;-51
2021/11/17 09:03:26;;;;;;;62.30;22.77;;;7.90;99.90;;;;;;5076487;28;20233;-52
2021/11/17 09:05:57;;;;;;;66.80;24.20;;;7.90;99.90;;;;;;5055954;28;20789;-52
2021/11/17 09:08:24;;;;;;;75.93;24.93;;;8.00;99.90;;;;;;5072505;28;20234;-52
2021/11/17 09:10:55;;;;;;;72.83;24.63;;;8.00;99.90;;;;;;5075063;28;20202;-53
2021/11/17 09:13:23;;;;;;;65.50;24.83;;;8.00;99.90;;;;;;5072369;28;20346;-53
2021/11/17 09:15:51;;;;;;;79.00;24.97;;;8.00;99.90;;;;;;5074923;28;20683;-53
2021/11/17 09:18:21;;;;;;;73.63;25.33;;;8.00;99.90;;;;;;5076234;28;20906;-52
2021/11/17 09:20:49;;;;;;;67.07;24.13;;;8.10;99.90;;;;;;5075730;28;20254;-53
2021/11/17 09:23:17;;;;;;;76.57;24.83;;;8.10;99.90;;;;;;5071853;28;20778;-54
2021/11/17 09:25:45;;;;;;;76.87;25.90;;;8.10;99.90;;;;;;5074451;28;20209;-51
2021/11/17 09:28:18;;;;;;;84.67;24.57;;;8.10;99.90;;;;;;5073248;28;20559;-50
2021/11/17 09:30:45;;;;;;;77.37;27.63;;;8.20;99.90;;;;;;5076443;28;20408;-52
2021/11/17 09:33:14;;;;;;;82.17;25.20;;;8.10;99.90;;;;;;5059054;28;20290;-52
2021/11/17 09:35:43;;;;;;;85.77;26.80;;;8.20;99.90;;;;;;5060058;28;20200;-52
2021/11/17 09:38:11;;;;;;;78.43;27.57;;;8.30;99.90;;;;;;5074321;28;20299;-53
2021/11/17 09:40:40;;;;;;;85.20;26.07;;;8.30;99.90;;;;;;5059785;28;20368;-53
2021/11/17 09:43:10;;;;;;;79.63;26.43;;;8.40;99.90;;;;;;5075352;28;20604;-53
2021/11/17 09:45:40;;;;;;;80.13;26.53;;;8.40;99.90;;;;;;5073669;28;20205;-52
2021/11/17 09:48:12;;;;;;;70.83;25.53;;;8.40;99.90;;;;;;5076497;28;20293;-51
2021/11/17 09:50:50;;;;;;;78.93;25.90;;;8.50;99.90;;;;;;5075325;28;20275;-51
2021/11/17 09:53:44;;;;;;;77.23;26.47;;;8.60;99.90;;;;;;5073844;28;20649;-51
2021/11/17 09:56:56;;;;;;;90.10;26.33;;;8.60;99.90;;;;;;5079483;28;20584;-54
2021/11/17 09:59:28;;;;;;;77.27;24.80;;;8.60;99.90;;;;;;5066084;28;20199;-53
2021/11/17 10:02:06;;;;;;;72.93;26.07;;;8.70;99.90;;;;;;5061262;28;20210;-53
2021/11/17 10:05:08;;;;;;;87.57;26.90;;;8.70;99.90;;;;;;5080763;28;20208;-51
2021/11/17 10:13:22;;;;;;;75.60;24.27;;;8.90;99.90;;;;;;5074674;28;20714;-52
2021/11/17 10:15:52;;;;;;;79.77;28.47;;;8.90;99.90;;;;;;5077540;28;20251;-50
2021/11/17 10:18:30;;;;;;;73.20;26.30;;;9.00;99.90;;;;;;5075716;28;20320;-50
2021/11/17 10:21:02;;;;;;;82.10;28.27;;;9.00;99.90;;;;;;5079086;28;20244;-53
2021/11/17 10:23:54;;;;;;;84.60;26.90;;;9.00;99.90;;;;;;5076349;28;20206;-51
2021/11/17 10:26:22;;;;;;;67.20;24.53;;;9.10;99.90;;;;;;5074860;28;20233;-52
2021/11/17 10:29:22;;;;;;;79.47;26.90;;;9.20;99.90;;;;;;5078109;28;20242;-51
2021/11/17 10:31:54;;;;;;;77.10;27.10;;;9.20;99.90;;;;;;5071608;28;20220;-54
2021/11/17 10:34:32;;;;;;;65.83;24.77;;;9.20;99.90;;;;;;5076010;28;20204;-52
2021/11/17 10:37:11;;;;;;;70.77;26.23;;;9.20;99.90;;;;;;5077014;28;20319;-52
2021/11/17 10:39:37;;;;;;;68.13;24.20;;;9.30;99.90;;;;;;5072854;28;20299;-52
2021/11/17 10:42:07;;;;;;;65.73;24.77;;;9.30;99.90;;;;;;5077596;28;20291;-52
2021/11/17 10:44:43;;;;;;;73.47;25.03;;;9.40;99.90;;;;;;5077525;28;20229;-53
2021/11/17 10:47:28;;;;;;;66.97;25.00;;;9.50;99.90;;;;;;5074558;28;20229;-52
2021/11/17 10:49:55;;;;;;;59.53;23.87;;;9.50;99.90;;;;;;5074158;28;20194;-51
2021/11/17 10:52:41;;;;;;;52.20;22.07;;;9.50;99.90;;;;;;5075675;28;20273;-52
2021/11/17 10:55:27;;;;;;;64.07;23.30;;;9.50;99.90;;;;;;5071591;28;20229;-51
2021/11/17 10:57:54;;;;;;;66.37;23.47;;;9.60;99.90;;;;;;5077332;28;20225;-52
2021/11/17 11:00:32;;;;;;;61.53;23.40;;;9.60;99.90;;;;;;5071996;28;20203;-52
2021/11/17 11:03:02;;;;;;;65.70;24.33;;;9.70;99.90;;;;;;5073457;28;20252;-53
2021/11/17 11:05:33;;;;;;;63.10;23.67;;;9.90;99.90;;;;;;5078638;28;20225;-52
2021/11/17 11:08:12;;;;;;;61.83;25.77;;;10.00;99.90;;;;;;5076546;28;20239;-51
2021/11/17 11:10:45;;;;;;;74.50;27.87;;;10.10;99.90;;;;;;5075093;28;20291;-51
2021/11/17 11:13:21;;;;;;;72.57;25.43;;;10.10;99.90;;;;;;5077294;28;20232;-50
2021/11/17 11:15:55;;;;;;;67.47;26.13;;;10.10;99.90;;;;;;5061860;28;20258;-59
2021/11/17 11:18:32;;;;;;;69.53;26.83;;;10.30;99.90;;;;;;5076806;28;20222;-59
2021/11/17 11:20:59;;;;;;;65.87;27.93;;;10.40;99.90;;;;;;5077379;28;20238;-58
2021/11/17 11:23:30;;;;;;;58.33;25.50;;;10.50;99.90;;;;;;5077776;28;20207;-60
2021/11/17 11:26:02;;;;;;;69.30;27.20;;;10.40;99.90;;;;;;5076860;28;20222;-59
2021/11/17 11:28:47;;;;;;;59.83;25.50;;;10.60;99.90;;;;;;5076368;28;20619;-58
2021/11/17 11:31:23;;;;;;;68.87;25.83;;;10.60;99.90;;;;;;5075773;28;20555;-58
2021/11/17 11:34:12;;;;;;;60.73;25.10;;;10.70;99.90;;;;;;5080321;28;20210;-61
2021/11/17 11:36:44;;;;;;;59.50;24.60;;;10.60;99.90;;;;;;5074872;28;20414;-60
2021/11/17 11:39:10;;;;;;;57.80;25.57;;;10.70;99.90;;;;;;5077031;28;20222;-61
2021/11/17 11:42:03;;;;;;;56.37;23.60;;;10.90;99.90;;;;;;5076945;28;20194;-51
2021/11/17 11:44:56;;;;;;;47.80;22.30;;;10.80;99.90;;;;;;5076584;28;20199;-51
2021/11/17 11:47:23;;;;;;;56.97;23.00;;;10.90;99.90;;;;;;5074521;28;20500;-52
2021/11/17 11:49:52;;;;;;;50.93;22.97;;;11.00;99.90;;;;;;5078055;28;20226;-50
2021/11/17 11:52:27;;;;;;;52.13;22.83;;;10.90;99.90;;;;;;5072027;28;20365;-50
2021/11/17 11:54:54;;;;;;;45.87;21.37;;;10.90;99.90;;;;;;5071534;28;20302;-53
2021/11/17 11:57:21;;;;;;;52.73;22.20;;;10.90;99.90;;;;;;5074713;28;20636;-52
2021/11/17 11:59:48;;;;;;;49.90;23.17;;;10.90;99.90;;;;;;5076861;28;20528;-52
2021/11/17 12:02:23;;;;;;;53.07;22.20;;;10.90;99.90;;;;;;5058575;28;20237;-52
2021/11/17 12:04:56;;;;;;;50.23;21.87;;;11.00;99.90;;;;;;5079197;28;20213;-52
2021/11/17 12:07:49;;;;;;;46.23;21.57;;;11.00;99.90;;;;;;5057311;28;20829;-50
2021/11/17 12:10:19;;;;;;;49.27;21.97;;;11.10;99.90;;;;;;5076516;28;20897;-51
2021/11/17 12:12:46;;;;;;;49.03;23.20;;;11.10;99.90;;;;;;5075994;28;20308;-51
2021/11/17 12:15:20;;;;;;;44.07;20.20;;;11.30;99.90;;;;;;5080007;28;20629;-50
2021/11/17 12:17:48;;;;;;;45.10;20.33;;;11.30;99.90;;;;;;5074866;28;20322;-50
2021/11/17 12:20:25;;;;;;;48.27;21.03;;;11.30;99.90;;;;;;5067089;28;20361;-50
2021/11/17 12:22:56;;;;;;;43.50;20.33;;;11.30;99.90;;;;;;5074223;28;20255;-52
2021/11/17 12:25:27;;;;;;;37.67;18.67;;;11.40;99.90;;;;;;5077207;28;20286;-51
2021/11/17 12:27:59;;;;;;;42.83;19.77;;;11.30;99.90;;;;;;5075750;28;20268;-54
2021/11/17 12:30:56;;;;;;;37.80;17.87;;;11.50;99.90;;;;;;5078254;28;20226;-52
2021/11/17 12:33:30;;;;;;;37.77;18.67;;;11.50;99.90;;;;;;5054605;28;20215;-51
2021/11/17 12:36:19;;;;;;;31.03;15.80;;;11.40;99.90;;;;;;5054035;28;20208;-51
2021/11/17 12:38:46;;;;;;;36.80;17.70;;;11.60;99.90;;;;;;5072066;28;20395;-52
2021/11/17 12:41:17;;;;;;;33.67;18.00;;;11.60;99.90;;;;;;5074251;28;20204;-54
2021/11/17 12:44:01;;;;;;;39.40;18.20;;;11.50;99.90;;;;;;5073842;28;20272;-53
2021/11/17 12:47:10;;;;;;;40.47;16.33;;;11.50;99.90;;;;;;5070442;28;20604;-52
2021/11/17 12:49:52;;;;;;;45.50;18.27;;;11.60;99.90;;;;;;5007690;28;20293;-52
2021/11/17 12:52:29;;;;;;;34.20;16.70;;;11.80;99.90;;;;;;5021260;28;20365;-52
2021/11/17 12:55:29;;;;;;;33.10;17.30;;;12.00;99.90;;;;;;5027769;28;20701;-51
2021/11/17 12:58:10;;;;;;;29.73;16.17;;;12.10;99.90;;;;;;5014380;28;20224;-52
2021/11/17 13:00:45;;;;;;;31.53;15.77;;;11.90;99.90;;;;;;5027804;28;20786;-51
2021/11/17 13:03:27;;;;;;;26.30;14.93;;;12.10;99.90;;;;;;5035978;28;20331;-51
2021/11/17 13:06:07;;;;;;;27.63;14.27;;;12.40;99.90;;;;;;5037321;28;20303;-50
2021/11/17 13:08:35;;;;;;;26.10;13.73;;;12.50;99.90;;;;;;5024441;28;20250;-51
2021/11/17 13:11:06;;;;;;;29.00;15.23;;;12.90;99.90;;;;;;5028028;28;20308;-50
2021/11/17 13:13:38;;;;;;;25.00;14.17;;;13.20;99.90;;;;;;5017075;28;20987;-51
2021/11/17 13:16:34;;;;;;;32.17;14.23;;;13.40;99.90;;;;;;5032967;28;20290;-50
2021/11/17 13:19:04;;;;;;;22.47;11.17;;;13.60;99.90;;;;;;5034530;28;20228;-50
2021/11/17 13:21:39;;;;;;;24.97;13.50;;;13.60;99.90;;;;;;5033195;28;21006;-51
2021/11/17 13:24:25;;;;;;;26.43;12.40;;;13.40;99.90;;;;;;5062799;28;20303;-51
2021/11/17 13:27:12;;;;;;;26.17;12.07;;;12.90;99.90;;;;;;5075211;28;20196;-50
2021/11/17 13:30:00;;;;;;;22.53;11.27;;;12.60;99.90;;;;;;5067386;28;20615;-50
2021/11/17 13:32:33;;;;;;;23.93;9.47;;;12.50;99.90;;;;;;5071787;28;20262;-50
2021/11/17 13:35:33;;;;;;;17.57;7.77;;;12.50;99.90;;;;;;5079633;28;20203;-50
2021/11/17 13:38:21;;;;;;;17.13;7.97;;;12.60;99.90;;;;;;5076514;28;20308;-51
2021/11/17 13:40:52;;;;;;;17.40;5.80;;;12.60;99.90;;;;;;5081627;28;20208;-51
2021/11/17 13:43:20;;;;;;;13.90;4.90;;;12.70;99.90;;;;;;5077204;28;20205;-50
2021/11/17 13:45:53;;;;;;;14.63;5.00;;;12.90;99.90;;;;;;5075625;28;20283;-52
2021/11/17 13:48:29;;;;;;;11.50;3.20;;;12.80;99.90;;;;;;5073696;28;20803;-51
2021/11/17 13:50:56;;;;;;;13.33;3.37;;;12.90;99.90;;;;;;5069275;28;20269;-51
2021/11/17 13:53:25;;;;;;;13.63;3.00;;;13.00;99.90;;;;;;5072458;28;20282;-50
2021/11/17 13:56:02;;;;;;;11.83;4.07;;;13.20;99.90;;;;;;5070862;28;20321;-57
2021/11/17 13:58:31;;;;;;;11.97;3.77;;;12.90;99.90;;;;;;5073168;28;20310;-52
2021/11/17 14:00:59;;;;;;;9.50;2.57;;;12.90;99.90;;;;;;5070324;28;20292;-51
2021/11/17 14:03:26;;;;;;;13.70;3.30;;;12.70;99.90;;;;;;5075943;28;20220;-51
2021/11/17 14:05:53;;;;;;;11.70;2.90;;;12.50;99.90;;;;;;5062204;28;20308;-51
2021/11/17 14:08:21;;;;;;;10.57;2.73;;;12.40;99.90;;;;;;5076532;28;20290;-51
2021/11/17 14:10:48;;;;;;;11.63;2.40;;;12.40;99.90;;;;;;5078927;28;20346;-51
2021/11/17 14:13:15;;;;;;;7.37;2.27;;;12.50;99.90;;;;;;5079735;28;20284;-51
2021/11/17 14:15:42;;;;;;;10.33;2.43;;;12.50;99.90;;;;;;5079773;28;23080;-51
2021/11/17 14:18:12;;;;;;;10.23;2.83;;;12.50;99.90;;;;;;5073962;28;22130;-51
2021/11/17 14:20:40;;;;;;;10.80;3.60;;;12.70;99.90;;;;;;5068081;28;20307;-51
2021/11/17 14:23:07;;;;;;;10.70;2.70;;;12.70;99.90;;;;;;5076288;28;20248;-51
2021/11/17 14:25:35;;;;;;;12.20;2.43;;;12.80;99.90;;;;;;5076406;28;20199;-50
2021/11/17 14:28:13;;;;;;;7.40;2.40;;;12.80;99.90;;;;;;5069271;28;20312;-51
2021/11/17 14:30:45;;;;;;;8.10;2.40;;;12.80;99.90;;;;;;5070802;28;20648;-50
2021/11/17 14:33:18;;;;;;;9.80;2.47;;;13.00;99.90;;;;;;5072259;28;20234;-50
2021/11/17 14:35:45;;;;;;;11.93;2.33;;;12.90;99.90;;;;;;5070387;28;20633;-51
2021/11/17 14:38:16;;;;;;;7.67;2.30;;;12.90;99.90;;;;;;5070000;28;20217;-50
2021/11/17 14:40:45;;;;;;;9.87;2.63;;;12.70;99.90;;;;;;5070627;28;20226;-51
2021/11/17 14:43:12;;;;;;;10.07;2.20;;;12.70;99.90;;;;;;5072820;28;20292;-51
2021/11/17 14:45:40;;;;;;;10.90;2.27;;;12.60;99.90;;;;;;5063974;28;20281;-52
2021/11/17 14:48:07;;;;;;;10.30;2.80;;;12.60;99.90;;;;;;5069524;28;20206;-51
2021/11/17 14:50:34;;;;;;;9.33;2.57;;;12.70;99.90;;;;;;5071051;28;21881;-52
2021/11/17 14:53:01;;;;;;;8.60;2.80;;;12.60;99.90;;;;;;5073022;28;20304;-53
2021/11/17 14:55:29;;;;;;;8.43;2.53;;;12.40;99.90;;;;;;5071230;28;20301;-52
2021/11/17 14:57:57;;;;;;;9.00;2.30;;;12.40;99.90;;;;;;5074040;28;20221;-51
2021/11/17 15:00:28;;;;;;;10.70;2.30;;;12.40;99.90;;;;;;5073130;28;20621;-52
2021/11/17 15:02:56;;;;;;;9.97;2.77;;;12.40;99.90;;;;;;5075973;28;20201;-54
2021/11/17 15:05:26;;;;;;;7.90;2.53;;;12.40;99.90;;;;;;5076522;28;21532;-51
2021/11/17 15:07:54;;;;;;;9.17;2.67;;;12.50;99.90;;;;;;5072842;28;20247;-51
2021/11/17 15:10:22;;;;;;;12.33;3.20;;;12.10;99.90;;;;;;5076411;28;20194;-51
2021/11/17 15:12:49;;;;;;;7.23;2.47;;;12.30;99.90;;;;;;5072488;28;20299;-51
2021/11/17 15:15:26;;;;;;;8.73;2.43;;;12.10;99.90;;;;;;5069707;28;20225;-51
2021/11/17 15:17:54;;;;;;;11.47;2.27;;;11.90;99.90;;;;;;5071659;28;20279;-52
2021/11/17 15:20:21;;;;;;;7.97;2.20;;;11.80;99.90;;;;;;5070091;28;21370;-52
2021/11/17 15:22:48;;;;;;;16.90;2.67;;;11.60;99.90;;;;;;5056056;28;20249;-54
2021/11/17 15:25:19;;;;;;;6.43;2.90;;;11.30;99.90;;;;;;5076357;28;20279;-53
2021/11/17 15:27:50;;;;;;;7.60;2.10;;;11.30;99.90;;;;;;5075797;28;20295;-51
2021/11/17 15:30:22;;;;;;;7.90;2.23;;;11.30;99.90;;;;;;5070625;28;20288;-50
2021/11/17 15:32:53;;;;;;;9.27;2.43;;;11.30;99.90;;;;;;5058189;28;20208;-51
2021/11/17 15:35:22;;;;;;;9.37;2.93;;;11.30;99.90;;;;;;5069148;28;20900;-51
2021/11/17 15:37:50;;;;;;;10.77;2.93;;;11.20;99.90;;;;;;5051418;28;20220;-53
2021/11/17 15:40:21;;;;;;;11.43;2.93;;;11.20;99.90;;;;;;5070839;28;20205;-52
2021/11/17 15:42:50;;;;;;;10.03;2.47;;;11.30;99.90;;;;;;5065114;28;20213;-52
2021/11/17 15:45:18;;;;;;;9.83;2.60;;;11.30;99.90;;;;;;5069362;28;20229;-52
2021/11/17 15:47:48;;;;;;;7.97;2.53;;;11.30;99.90;;;;;;5071009;28;20237;-52
2021/11/17 15:50:26;;;;;;;10.67;2.87;;;11.20;99.90;;;;;;5067444;28;20955;-50
2021/11/17 15:52:54;;;;;;;16.53;3.23;;;11.10;99.90;;;;;;5062907;28;20204;-53